createdAt,value
2023-05-09T00:01:17.629Z,73.08
2023-05-09T00:03:58.151Z,71.81
2023-05-09T00:06:29.431Z,73.14
2023-05-09T00:08:59.429Z,72.50
2023-05-09T00:11:26.233Z,73.03
2023-05-09T00:13:55.670Z,73.95
2023-05-09T00:16:24.250Z,72.45
2023-05-09T00:18:51.781Z,73.43
2023-05-09T00:21:18.614Z,72.57
2023-05-09T00:23:50.064Z,74.08
2023-05-09T00:26:17.203Z,73.11
2023-05-09T00:28:50.022Z,74.47
2023-05-09T00:31:16.846Z,73.19
2023-05-09T00:33:43.841Z,73.71
2023-05-09T00:36:10.675Z,71.02
2023-05-09T00:38:37.576Z,73.26
2023-05-09T00:41:08.271Z,72.66
2023-05-09T00:43:39.008Z,73.09
2023-05-09T00:46:08.959Z,74.49
2023-05-09T00:48:36.136Z,73.77
2023-05-09T00:51:11.796Z,74.51
2023-05-09T00:53:44.166Z,74.89
2023-05-09T00:56:12.433Z,77.08
2023-05-09T00:58:39.338Z,76.94
2023-05-09T01:01:06.472Z,78.73
2023-05-09T01:03:33.484Z,76.70
2023-05-09T01:06:38.591Z,76.21
2023-05-09T01:09:32.617Z,76.96
2023-05-09T01:12:25.735Z,78.23
2023-05-09T01:15:28.870Z,79.89
2023-05-09T01:18:29.326Z,80.57
2023-05-09T01:21:19.734Z,82.63
2023-05-09T01:24:57.275Z,81.60
2023-05-09T01:28:08.891Z,80.86
2023-05-09T01:30:41.519Z,82.66
2023-05-09T01:33:11.125Z,84.17
2023-05-09T01:35:42.814Z,84.53
2023-05-09T01:38:21.954Z,84.96
2023-05-09T01:41:01.602Z,87.42
2023-05-09T01:43:39.275Z,86.14
2023-05-09T01:46:10.756Z,86.20
2023-05-09T01:48:41.125Z,84.16
2023-05-09T01:51:14.211Z,84.67
2023-05-09T01:53:51.936Z,84.45
2023-05-09T01:56:24.456Z,83.18
2023-05-09T01:58:57.844Z,84.71
2023-05-09T02:01:28.979Z,85.60
2023-05-09T02:03:57.764Z,84.93
2023-05-09T02:06:26.632Z,85.71
2023-05-09T02:09:05.890Z,82.95
2023-05-09T02:11:35.889Z,82.85
2023-05-09T02:14:03.406Z,82.90
2023-05-09T02:16:30.284Z,83.89
2023-05-09T02:19:00.304Z,84.73
2023-05-09T02:21:30.422Z,84.65
2023-05-09T02:23:57.876Z,87.06
2023-05-09T02:26:35.301Z,86.84
2023-05-09T02:29:08.155Z,86.21
2023-05-09T02:31:36.524Z,86.87
2023-05-09T02:34:09.723Z,86.59
2023-05-09T02:36:38.076Z,85.46
2023-05-09T02:39:08.180Z,86.69
2023-05-09T02:41:34.963Z,87.34
2023-05-09T02:44:01.735Z,88.13
2023-05-09T02:46:28.858Z,88.65
2023-05-09T02:49:01.858Z,89.82
2023-05-09T02:51:28.661Z,90.88
2023-05-09T02:53:58.463Z,92.77
2023-05-09T02:56:25.211Z,93.66
2023-05-09T02:58:58.473Z,96.18
2023-05-09T03:01:25.529Z,97.79
2023-05-09T03:03:58.045Z,98.92
2023-05-09T03:06:24.921Z,99.07
2023-05-09T03:08:58.066Z,99.45
2023-05-09T03:11:24.826Z,99.64
2023-05-09T03:13:59.717Z,99.65
2023-05-09T03:16:26.585Z,99.60
2023-05-09T03:18:59.704Z,100.00
2023-05-09T03:21:26.938Z,100.00
2023-05-09T03:23:56.529Z,100.00
2023-05-09T03:26:23.314Z,100.00
2023-05-09T03:28:50.093Z,100.00
2023-05-09T03:31:17.067Z,100.00
2023-05-09T03:33:58.374Z,100.00
2023-05-09T03:36:25.435Z,100.00
2023-05-09T03:38:59.828Z,100.00
2023-05-09T03:41:26.807Z,100.00
2023-05-09T03:44:06.714Z,100.00
2023-05-09T03:46:33.592Z,100.00
2023-05-09T03:49:00.480Z,100.00
2023-05-09T03:51:27.187Z,100.00
2023-05-09T03:54:00.240Z,100.00
2023-05-09T03:56:26.966Z,100.00
2023-05-09T03:59:03.189Z,100.00
2023-05-09T04:01:30.941Z,100.00
2023-05-09T04:04:00.820Z,100.00
2023-05-09T04:06:29.587Z,100.00
2023-05-09T04:08:59.397Z,100.00
2023-05-09T04:11:26.966Z,100.00
2023-05-09T04:13:59.810Z,100.00
2023-05-09T04:16:26.858Z,100.00
2023-05-09T04:18:59.236Z,100.00
2023-05-09T04:21:28.407Z,100.00
2023-05-09T04:24:07.378Z,100.00
2023-05-09T04:26:37.964Z,100.00
2023-05-09T04:29:10.803Z,100.00
2023-05-09T04:31:37.577Z,100.00
2023-05-09T04:34:08.223Z,100.00
2023-05-09T04:36:34.952Z,100.00
2023-05-09T04:39:05.699Z,100.00
2023-05-09T04:41:32.433Z,100.00
2023-05-09T04:44:03.469Z,100.00
2023-05-09T04:46:30.599Z,100.00
2023-05-09T04:49:00.686Z,100.00
2023-05-09T04:51:33.356Z,100.00
2023-05-09T04:54:06.940Z,100.00
2023-05-09T04:56:33.814Z,100.00
2023-05-09T04:59:00.946Z,98.28
2023-05-09T05:01:28.874Z,94.29
2023-05-09T05:04:00.811Z,95.10
2023-05-09T05:06:27.698Z,90.45
2023-05-09T05:09:22.385Z,90.48
2023-05-09T05:11:59.506Z,89.43
2023-05-09T05:14:28.967Z,84.94
2023-05-09T05:17:01.745Z,87.21
2023-05-09T05:19:28.562Z,87.09
2023-05-09T05:21:58.460Z,86.42
2023-05-09T05:24:25.331Z,87.53
2023-05-09T05:26:52.065Z,84.17
2023-05-09T05:29:20.421Z,85.89
2023-05-09T05:31:47.178Z,82.71
2023-05-09T05:34:16.554Z,82.31
2023-05-09T05:36:43.779Z,80.89
2023-05-09T05:39:10.547Z,81.86
2023-05-09T05:41:37.349Z,77.48
2023-05-09T05:44:06.438Z,75.84
2023-05-09T05:46:33.410Z,74.06
2023-05-09T05:49:03.293Z,72.71
2023-05-09T05:51:35.317Z,71.73
2023-05-09T05:54:11.155Z,68.30
2023-05-09T05:56:37.904Z,69.13
2023-05-09T05:59:07.052Z,67.89
2023-05-09T06:01:33.893Z,67.84
2023-05-09T06:04:06.722Z,64.85
2023-05-09T06:06:42.513Z,63.91
2023-05-09T06:09:21.755Z,65.81
2023-05-09T06:11:48.577Z,67.52
2023-05-09T06:14:16.057Z,63.39
2023-05-09T06:16:42.990Z,64.98
2023-05-09T06:19:09.798Z,60.68
2023-05-09T06:21:36.657Z,61.57
2023-05-09T06:24:16.931Z,61.18
2023-05-09T06:26:50.944Z,60.59
2023-05-09T06:29:17.844Z,60.87
2023-05-09T06:31:47.657Z,59.22
2023-05-09T06:34:14.615Z,56.78
2023-05-09T06:36:41.432Z,57.97
2023-05-09T06:39:08.452Z,57.29
2023-05-09T06:41:35.223Z,57.29
2023-05-09T06:44:06.927Z,56.22
2023-05-09T06:46:33.724Z,54.61
2023-05-09T06:49:02.499Z,53.53
2023-05-09T06:51:29.422Z,51.38
2023-05-09T06:54:10.011Z,52.20
2023-05-09T06:56:37.116Z,51.17
2023-05-09T06:59:11.605Z,51.51
2023-05-09T07:01:38.484Z,52.06
2023-05-09T07:04:12.746Z,50.92
2023-05-09T07:06:39.795Z,50.71
2023-05-09T07:09:11.030Z,50.55
2023-05-09T07:11:37.975Z,50.73
2023-05-09T07:14:13.864Z,51.06
2023-05-09T07:16:41.132Z,51.18
2023-05-09T07:19:10.814Z,50.25
2023-05-09T07:21:37.545Z,49.92
2023-05-09T07:24:07.843Z,50.27
2023-05-09T07:26:39.007Z,51.51
2023-05-09T07:29:08.834Z,51.49
2023-05-09T07:31:37.322Z,50.22
2023-05-09T07:34:06.714Z,50.53
2023-05-09T07:36:35.332Z,50.88
2023-05-09T07:39:09.319Z,52.01
2023-05-09T07:41:36.474Z,51.61
2023-05-09T07:44:09.660Z,49.56
2023-05-09T07:46:39.906Z,50.37
2023-05-09T07:49:10.107Z,48.25
2023-05-09T07:51:37.211Z,49.67
2023-05-09T07:54:07.091Z,48.84
2023-05-09T07:56:33.865Z,50.50
2023-05-09T07:59:03.733Z,50.20
2023-05-09T08:01:33.688Z,50.57
2023-05-09T08:04:08.241Z,48.48
2023-05-09T08:06:38.030Z,48.69
2023-05-09T08:09:08.060Z,49.37
2023-05-09T08:11:36.175Z,50.76
2023-05-09T08:14:08.840Z,48.96
2023-05-09T08:16:38.563Z,53.81
2023-05-09T08:19:14.087Z,49.41
2023-05-09T08:21:41.020Z,47.78
2023-05-09T08:24:10.743Z,47.71
2023-05-09T08:26:37.490Z,47.49
2023-05-09T08:29:05.335Z,48.34
2023-05-09T08:31:35.121Z,47.77
2023-05-09T08:34:13.871Z,47.41
2023-05-09T08:36:41.226Z,48.22
2023-05-09T08:39:10.991Z,48.77
2023-05-09T08:41:39.707Z,47.82
2023-05-09T08:44:11.095Z,46.74
2023-05-09T08:46:45.647Z,47.59
2023-05-09T08:49:13.317Z,47.83
2023-05-09T08:51:48.444Z,48.63
2023-05-09T08:54:16.325Z,48.30
2023-05-09T08:56:43.360Z,48.25
2023-05-09T08:59:22.072Z,46.90
2023-05-09T09:01:50.243Z,45.88
2023-05-09T09:04:19.221Z,45.59
2023-05-09T09:06:46.984Z,45.89
2023-05-09T09:09:17.273Z,44.41
2023-05-09T09:11:46.071Z,46.06
2023-05-09T09:14:25.671Z,45.16
2023-05-09T09:17:15.323Z,45.24
2023-05-09T09:19:51.988Z,47.63
2023-05-09T09:22:20.866Z,45.85
2023-05-09T09:24:58.924Z,46.19
2023-05-09T09:27:28.825Z,43.02
2023-05-09T09:30:13.068Z,43.79
2023-05-09T09:33:12.075Z,44.36
2023-05-09T09:36:00.221Z,43.10
2023-05-09T09:38:29.446Z,44.15
2023-05-09T09:40:59.017Z,45.12
2023-05-09T09:43:35.785Z,40.74
2023-05-09T09:46:24.717Z,40.68
2023-05-09T09:49:01.958Z,41.12
2023-05-09T09:51:29.530Z,41.49
2023-05-09T09:54:13.043Z,45.87
2023-05-09T09:58:17.902Z,39.58
2023-05-09T10:00:59.717Z,39.66
2023-05-09T10:03:50.761Z,38.92
2023-05-09T10:06:17.718Z,40.11
2023-05-09T10:09:15.082Z,39.16
2023-05-09T10:11:46.092Z,40.66
2023-05-09T10:14:26.271Z,38.81
2023-05-09T10:17:01.142Z,41.05
2023-05-09T10:19:32.041Z,37.26
2023-05-09T10:22:11.727Z,36.56
2023-05-09T10:27:49.359Z,37.32
2023-05-09T10:30:34.331Z,36.81
2023-05-09T10:33:16.556Z,35.84
2023-05-09T10:36:25.230Z,36.90
2023-05-09T10:39:01.464Z,37.28
2023-05-09T10:41:42.498Z,38.35
2023-05-09T10:44:19.120Z,38.77
2023-05-09T10:46:56.344Z,35.97
2023-05-09T10:49:30.825Z,36.31
2023-05-09T10:52:13.316Z,39.63
2023-05-09T10:58:20.361Z,36.43
2023-05-09T11:00:55.382Z,37.57
2023-05-09T11:04:02.088Z,34.59
2023-05-09T11:07:38.933Z,36.25
2023-05-09T11:09:41.365Z,37.00
2023-05-09T11:15:14.427Z,36.76
2023-05-09T11:17:42.391Z,35.69
2023-05-09T11:26:28.223Z,38.82
2023-05-09T11:29:03.422Z,39.69
2023-05-09T11:32:42.642Z,39.44
2023-05-09T11:35:44.012Z,39.00
2023-05-09T11:41:28.776Z,38.29
2023-05-09T11:44:23.442Z,38.29
2023-05-09T11:47:26.554Z,35.79
2023-05-09T11:50:12.387Z,37.21
2023-05-09T11:52:55.486Z,38.12
2023-05-09T11:55:23.178Z,37.41
2023-05-09T11:58:20.013Z,36.50
2023-05-09T12:01:12.403Z,36.71
2023-05-09T12:03:49.553Z,35.19
2023-05-09T12:06:21.153Z,35.00
2023-05-09T12:08:52.027Z,35.76
2023-05-09T12:11:21.641Z,35.74
2023-05-09T12:14:01.073Z,37.55
2023-05-09T12:16:39.476Z,36.37
2023-05-09T12:22:05.618Z,37.12
2023-05-09T12:24:37.733Z,36.35
2023-05-09T12:27:22.887Z,36.00
2023-05-09T12:29:59.743Z,35.56
2023-05-09T12:32:33.038Z,35.83
2023-05-09T12:35:06.411Z,35.13
2023-05-09T12:38:01.647Z,35.55
2023-05-09T12:40:34.621Z,34.48
2023-05-09T12:43:06.312Z,35.56
2023-05-09T12:45:34.394Z,35.40
2023-05-09T12:48:02.636Z,34.82
2023-05-09T12:50:36.915Z,34.14
2023-05-09T12:53:25.850Z,33.58
2023-05-09T12:56:27.141Z,34.84
2023-05-09T12:58:57.165Z,34.04
2023-05-09T13:01:29.620Z,33.90
2023-05-09T13:04:13.259Z,34.43
2023-05-09T13:06:51.462Z,33.35
2023-05-09T13:09:28.078Z,33.76
2023-05-09T13:11:58.186Z,35.14
2023-05-09T13:14:25.593Z,34.65
2023-05-09T13:17:02.019Z,34.39
2023-05-09T13:19:28.929Z,34.31
2023-05-09T13:22:00.914Z,37.56
2023-05-09T13:24:55.369Z,35.19
2023-05-09T13:27:29.431Z,33.68
2023-05-09T13:29:56.453Z,34.55
2023-05-09T13:32:49.783Z,36.03
2023-05-09T13:35:17.891Z,34.28
2023-05-09T13:38:12.727Z,35.64
2023-05-09T13:43:29.900Z,34.81
2023-05-09T13:49:01.765Z,35.18
2023-05-09T13:51:43.832Z,34.25
2023-05-09T13:54:23.851Z,34.12
2023-05-09T13:57:00.128Z,33.95
2023-05-09T14:05:16.989Z,32.47
2023-05-09T14:07:45.151Z,32.62
2023-05-09T14:10:24.217Z,33.07
2023-05-09T14:13:02.275Z,32.20
2023-05-09T14:15:29.976Z,33.23
2023-05-09T14:18:26.652Z,32.55
2023-05-09T14:21:03.148Z,32.13
2023-05-09T14:23:32.615Z,32.57
2023-05-09T14:26:02.929Z,32.49
2023-05-09T14:28:30.890Z,31.93
2023-05-09T14:31:01.556Z,30.67
2023-05-09T14:33:40.293Z,30.75
2023-05-09T14:36:18.196Z,30.93
2023-05-09T14:38:47.779Z,32.21
2023-05-09T14:41:18.658Z,31.48
2023-05-09T14:43:47.023Z,31.63
2023-05-09T14:46:27.496Z,32.17
2023-05-09T14:49:10.344Z,33.60
2023-05-09T14:51:57.663Z,31.86
2023-05-09T14:54:30.954Z,32.16
2023-05-09T14:57:02.153Z,31.94
2023-05-09T14:59:29.707Z,32.17
2023-05-09T15:01:56.500Z,31.57
2023-05-09T15:04:29.872Z,31.88
2023-05-09T15:07:10.479Z,32.16
2023-05-09T15:09:42.034Z,32.24
2023-05-09T15:12:08.918Z,33.10
2023-05-09T15:14:57.422Z,32.56
2023-05-09T15:17:29.017Z,32.20
2023-05-09T15:20:16.594Z,32.69
2023-05-09T15:22:49.815Z,33.42
2023-05-09T15:25:20.510Z,33.38
2023-05-09T15:27:50.813Z,33.90
2023-05-09T15:30:18.139Z,33.39
2023-05-09T15:32:45.394Z,33.00
2023-05-09T15:35:18.670Z,33.42
2023-05-09T15:37:59.017Z,32.91
2023-05-09T15:40:27.914Z,33.48
2023-05-09T15:43:09.246Z,32.92
2023-05-09T15:48:30.218Z,31.77
2023-05-09T15:50:59.197Z,32.01
2023-05-09T15:53:29.204Z,32.83
2023-05-09T15:56:02.054Z,32.82
2023-05-09T15:58:35.088Z,31.73
2023-05-09T16:01:11.780Z,32.68
2023-05-09T16:03:45.230Z,32.44
2023-05-09T16:06:21.621Z,32.75
2023-05-09T16:09:08.526Z,32.09
2023-05-09T16:11:36.247Z,32.03
2023-05-09T16:14:22.274Z,31.95
2023-05-09T16:16:50.537Z,32.04
2023-05-09T16:20:19.964Z,31.64
2023-05-09T16:22:45.776Z,31.98
2023-05-09T16:25:21.416Z,32.71
2023-05-09T16:28:19.498Z,33.38
2023-05-09T16:30:50.355Z,34.28
2023-05-09T16:33:41.602Z,33.49
2023-05-09T16:36:37.947Z,33.00
2023-05-09T16:39:12.857Z,32.35
2023-05-09T16:41:47.332Z,32.68
2023-05-09T16:44:17.831Z,31.79
2023-05-09T16:46:51.869Z,32.55
2023-05-09T16:49:43.127Z,32.18
2023-05-09T16:52:10.088Z,33.38
2023-05-09T16:54:36.935Z,34.27
2023-05-09T16:57:12.782Z,33.43
2023-05-09T16:59:42.279Z,32.99
2023-05-09T17:02:12.010Z,33.62
2023-05-09T17:05:00.329Z,33.42
2023-05-09T17:10:45.122Z,34.60
2023-05-09T17:13:23.878Z,35.00
2023-05-09T17:16:02.446Z,35.61
2023-05-09T17:18:37.412Z,36.69
2023-05-09T17:21:11.427Z,36.12
2023-05-09T17:23:38.791Z,35.91
2023-05-09T17:26:22.151Z,37.43
2023-05-09T17:28:49.698Z,36.56
2023-05-09T17:31:38.787Z,36.39
2023-05-09T17:34:23.954Z,37.83
2023-05-09T17:36:52.279Z,37.24
2023-05-09T17:39:42.614Z,37.13
2023-05-09T17:42:10.656Z,37.54
2023-05-09T17:44:43.688Z,37.41
2023-05-09T17:47:39.576Z,38.50
2023-05-09T17:50:25.719Z,37.16
2023-05-09T17:52:57.506Z,38.32
2023-05-09T17:55:27.024Z,38.53
2023-05-09T17:58:13.183Z,39.21
2023-05-09T18:00:43.205Z,39.40
2023-05-09T18:03:15.640Z,39.64
2023-05-09T18:06:16.333Z,39.99
2023-05-09T18:08:44.127Z,40.18
2023-05-09T18:11:29.029Z,40.63
2023-05-09T18:14:07.625Z,40.67
2023-05-09T18:16:35.593Z,41.31
2023-05-09T18:19:12.151Z,41.00
2023-05-09T18:21:49.598Z,41.17
2023-05-09T18:24:31.808Z,41.54
2023-05-09T18:27:09.908Z,42.21
2023-05-09T18:30:07.753Z,42.41
2023-05-09T18:35:29.473Z,42.69
2023-05-09T18:37:58.731Z,42.58
2023-05-09T18:40:46.265Z,42.70
2023-05-09T18:43:32.466Z,42.53
2023-05-09T18:49:57.237Z,43.53
2023-05-09T18:52:34.394Z,44.05
2023-05-09T18:55:09.144Z,43.03
2023-05-09T18:57:50.426Z,43.56
2023-05-09T19:00:39.507Z,42.82
2023-05-09T19:03:46.423Z,43.59
2023-05-09T19:12:18.030Z,43.88
2023-05-09T19:14:57.678Z,43.85
2023-05-09T19:17:42.775Z,44.48
2023-05-09T19:20:13.353Z,44.08
2023-05-09T19:23:13.638Z,44.19
2023-05-09T19:26:10.744Z,44.92
2023-05-09T19:28:40.356Z,45.27
2023-05-09T19:31:12.415Z,44.83
2023-05-09T19:33:47.809Z,45.30
2023-05-09T19:39:29.119Z,45.63
2023-05-09T19:42:56.196Z,45.49
2023-05-09T19:45:36.451Z,46.08
2023-05-09T19:48:22.718Z,45.94
2023-05-09T19:51:11.481Z,46.58
2023-05-09T19:54:02.553Z,45.66
2023-05-09T19:56:48.331Z,45.43
2023-05-09T20:02:35.050Z,46.52
2023-05-09T20:05:02.465Z,46.99
2023-05-09T20:07:32.875Z,46.71
2023-05-09T20:13:32.207Z,47.18
2023-05-09T20:16:20.871Z,49.04
2023-05-09T20:19:06.487Z,48.75
2023-05-09T20:21:36.388Z,49.18
2023-05-09T20:24:03.506Z,50.11
2023-05-09T20:26:40.758Z,49.72
2023-05-09T20:29:15.967Z,50.59
2023-05-09T20:32:11.215Z,50.15
2023-05-09T20:35:06.345Z,50.96
2023-05-09T20:37:36.996Z,51.13
2023-05-09T20:40:34.693Z,50.95
2023-05-09T20:43:02.004Z,51.33
2023-05-09T20:45:39.726Z,52.08
2023-05-09T20:48:37.287Z,52.30
2023-05-09T20:51:11.616Z,52.16
2023-05-09T20:53:38.644Z,52.64
2023-05-09T20:59:15.987Z,53.08
2023-05-09T21:02:30.765Z,52.35
2023-05-09T21:04:34.631Z,53.74
2023-05-09T21:07:01.779Z,53.90
2023-05-09T21:09:36.662Z,53.38
2023-05-09T21:12:06.957Z,54.24
2023-05-09T21:18:37.634Z,54.04
2023-05-09T21:21:20.473Z,55.28
2023-05-09T21:23:47.347Z,53.73
2023-05-09T21:26:14.143Z,54.99
2023-05-09T21:28:46.706Z,54.60
2023-05-09T21:31:13.491Z,54.32
2023-05-09T21:33:50.964Z,55.16
2023-05-09T21:36:20.328Z,55.31
2023-05-09T21:39:02.595Z,54.94
2023-05-09T21:41:29.602Z,53.81
2023-05-09T21:43:56.486Z,54.99
2023-05-09T21:46:35.506Z,54.94
2023-05-09T21:49:02.811Z,54.72
2023-05-09T21:54:15.228Z,54.78
2023-05-09T21:57:20.912Z,55.08
2023-05-09T22:00:30.252Z,54.79
2023-05-09T22:02:58.466Z,55.62
2023-05-09T22:05:32.571Z,55.47
2023-05-09T22:08:18.766Z,55.72
2023-05-09T22:11:14.949Z,55.37
2023-05-09T22:13:42.547Z,55.75
2023-05-09T22:16:20.192Z,56.78
2023-05-09T22:18:55.295Z,56.27
2023-05-09T22:21:36.544Z,56.96
2023-05-09T22:24:18.259Z,56.84
2023-05-09T22:27:17.661Z,57.00
2023-05-09T22:32:41.409Z,57.42
2023-05-09T22:35:11.702Z,58.00
2023-05-09T22:37:42.770Z,58.44
2023-05-09T22:40:17.707Z,58.26
2023-05-09T22:42:50.282Z,57.79
2023-05-09T22:45:20.468Z,57.17
2023-05-09T22:48:16.686Z,57.78
2023-05-09T22:50:43.577Z,57.07
2023-05-09T22:53:14.048Z,57.76
2023-05-09T22:55:40.787Z,58.87
2023-05-09T22:58:12.450Z,58.36
2023-05-09T23:00:49.276Z,58.22
2023-05-09T23:03:18.969Z,58.21
2023-05-09T23:05:45.749Z,58.22
2023-05-09T23:08:15.477Z,58.87
2023-05-09T23:13:35.117Z,58.76
2023-05-09T23:16:10.746Z,59.41
2023-05-09T23:18:37.689Z,58.55
2023-05-09T23:21:37.623Z,59.66
2023-05-09T23:24:18.776Z,59.86
2023-05-09T23:26:45.622Z,60.53
2023-05-09T23:29:20.824Z,60.70
2023-05-09T23:32:16.711Z,61.31
2023-05-09T23:34:44.991Z,61.70
2023-05-09T23:37:20.525Z,61.93
2023-05-09T23:39:47.319Z,63.65
2023-05-09T23:42:14.088Z,63.27
2023-05-09T23:44:45.788Z,63.90
2023-05-09T23:47:18.166Z,63.64
2023-05-09T23:49:50.662Z,63.89
2023-05-09T23:52:23.445Z,64.30
2023-05-09T23:55:02.798Z,64.90
2023-05-09T23:57:40.040Z,64.26
